createdAt,value
2018-08-11T00:01:03.165Z,100.00
2018-08-11T00:03:32.547Z,100.00
2018-08-11T00:06:01.911Z,100.00
2018-08-11T00:08:31.775Z,100.00
2018-08-11T00:11:01.207Z,98.95
2018-08-11T00:13:30.807Z,98.85
2018-08-11T00:16:00.174Z,99.96
2018-08-11T00:18:29.693Z,99.23
2018-08-11T00:20:59.513Z,100.00
2018-08-11T00:23:29.060Z,99.15
2018-08-11T00:25:58.886Z,98.45
2018-08-11T00:28:28.236Z,100.00
2018-08-11T00:30:57.534Z,99.67
2018-08-11T00:33:26.933Z,99.41
2018-08-11T00:35:56.422Z,99.59
2018-08-11T00:38:26.152Z,99.06
2018-08-11T00:40:55.764Z,99.54
2018-08-11T00:43:25.443Z,99.71
2018-08-11T00:45:54.577Z,99.42
2018-08-11T00:48:23.983Z,99.43
2018-08-11T00:50:53.559Z,98.28
2018-08-11T00:53:22.834Z,99.05
2018-08-11T00:55:52.190Z,99.40
2018-08-11T00:58:21.851Z,100.00
2018-08-11T01:00:51.474Z,100.00
2018-08-11T01:03:20.977Z,100.00
2018-08-11T01:05:50.818Z,99.57
2018-08-11T01:08:19.888Z,100.00
2018-08-11T01:10:48.978Z,100.00
2018-08-11T01:13:18.362Z,100.00
2018-08-11T01:15:47.402Z,100.00
2018-08-11T01:18:16.618Z,100.00
2018-08-11T01:20:46.912Z,100.00
2018-08-11T01:23:16.585Z,99.98
2018-08-11T01:25:46.576Z,100.00
2018-08-11T01:28:16.051Z,99.53
2018-08-11T01:30:45.849Z,99.86
2018-08-11T01:33:15.928Z,99.35
2018-08-11T01:35:45.713Z,100.00
2018-08-11T01:38:15.045Z,100.00
2018-08-11T01:40:44.495Z,100.00
2018-08-11T01:43:15.293Z,100.00
2018-08-11T01:45:45.350Z,100.00
2018-08-11T01:48:14.694Z,100.00
2018-08-11T01:50:44.145Z,100.00
2018-08-11T01:53:13.654Z,100.00
2018-08-11T01:55:43.225Z,100.00
2018-08-11T01:58:12.530Z,100.00
2018-08-11T02:00:41.909Z,100.00
2018-08-11T02:03:11.546Z,100.00
2018-08-11T02:05:41.154Z,100.00
2018-08-11T02:08:10.665Z,100.00
2018-08-11T02:10:40.883Z,100.00
2018-08-11T02:13:11.056Z,100.00
2018-08-11T02:15:40.435Z,100.00
2018-08-11T02:18:10.463Z,100.00
2018-08-11T02:20:40.169Z,100.00
2018-08-11T02:23:09.458Z,100.00
2018-08-11T02:25:39.465Z,100.00
2018-08-11T02:28:09.484Z,100.00
2018-08-11T02:30:38.775Z,100.00
2018-08-11T02:33:08.187Z,100.00
2018-08-11T02:35:37.546Z,100.00
2018-08-11T02:38:07.194Z,100.00
2018-08-11T02:40:37.325Z,100.00
2018-08-11T02:43:06.525Z,100.00
2018-08-11T02:45:37.358Z,100.00
2018-08-11T02:48:07.352Z,100.00
2018-08-11T02:50:36.976Z,100.00
2018-08-11T02:53:06.325Z,100.00
2018-08-11T02:55:35.648Z,100.00
2018-08-11T02:58:05.078Z,100.00
2018-08-11T03:00:35.308Z,100.00
2018-08-11T03:03:05.538Z,100.00
2018-08-11T03:05:34.561Z,100.00
2018-08-11T03:08:03.735Z,100.00
2018-08-11T03:10:33.941Z,100.00
2018-08-11T03:13:03.788Z,100.00
2018-08-11T03:15:33.799Z,100.00
2018-08-11T03:18:03.685Z,100.00
2018-08-11T03:20:33.014Z,100.00
2018-08-11T03:23:02.250Z,100.00
2018-08-11T03:25:31.697Z,100.00
2018-08-11T03:28:01.090Z,100.00
2018-08-11T03:30:30.372Z,100.00
2018-08-11T03:33:00.160Z,100.00
2018-08-11T03:35:29.584Z,100.00
2018-08-11T03:37:58.961Z,100.00
2018-08-11T03:40:28.384Z,100.00
2018-08-11T03:42:58.658Z,100.00
2018-08-11T03:45:28.217Z,100.00
2018-08-11T03:47:57.574Z,100.00
2018-08-11T03:50:27.033Z,100.00
2018-08-11T03:52:56.417Z,100.00
2018-08-11T03:55:25.757Z,100.00
2018-08-11T03:57:55.266Z,100.00
2018-08-11T04:00:24.589Z,100.00
2018-08-11T04:02:54.962Z,100.00
2018-08-11T04:05:24.638Z,100.00
2018-08-11T04:07:54.285Z,100.00
2018-08-11T04:10:23.645Z,100.00
2018-08-11T04:12:52.955Z,100.00
2018-08-11T04:15:22.566Z,100.00
2018-08-11T04:17:53.956Z,100.00
2018-08-11T04:20:23.383Z,100.00
2018-08-11T04:22:53.574Z,100.00
2018-08-11T04:25:23.075Z,100.00
2018-08-11T04:27:52.607Z,100.00
2018-08-11T04:30:22.808Z,100.00
2018-08-11T04:32:53.368Z,100.00
2018-08-11T04:35:23.760Z,100.00
2018-08-11T04:37:53.249Z,100.00
2018-08-11T04:40:22.640Z,100.00
2018-08-11T04:42:52.996Z,100.00
2018-08-11T04:45:22.502Z,100.00
2018-08-11T04:47:52.074Z,100.00
2018-08-11T04:50:21.469Z,100.00
2018-08-11T04:52:50.803Z,100.00
2018-08-11T04:55:20.045Z,100.00
2018-08-11T04:57:49.475Z,100.00
2018-08-11T05:00:18.928Z,100.00
2018-08-11T05:02:48.444Z,100.00
2018-08-11T05:05:19.745Z,100.00
2018-08-11T05:07:49.105Z,100.00
2018-08-11T05:10:18.644Z,100.00
2018-08-11T05:12:50.370Z,100.00
2018-08-11T05:15:19.952Z,100.00
2018-08-11T05:17:49.146Z,100.00
2018-08-11T05:20:19.870Z,100.00
2018-08-11T05:22:49.196Z,100.00
2018-08-11T05:25:18.666Z,100.00
2018-08-11T05:27:51.027Z,100.00
2018-08-11T05:30:20.495Z,100.00
2018-08-11T05:32:50.491Z,100.00
2018-08-11T05:35:20.739Z,100.00
2018-08-11T05:37:50.242Z,100.00
2018-08-11T05:40:21.906Z,100.00
2018-08-11T05:42:51.191Z,100.00
2018-08-11T05:45:21.519Z,100.00
2018-08-11T05:47:50.861Z,100.00
2018-08-11T05:50:20.547Z,100.00
2018-08-11T05:52:51.481Z,100.00
2018-08-11T05:55:21.153Z,99.41
2018-08-11T05:57:54.165Z,99.67
2018-08-11T06:00:23.689Z,99.52
2018-08-11T06:02:53.088Z,99.56
2018-08-11T06:05:22.688Z,96.44
2018-08-11T06:07:52.295Z,96.25
2018-08-11T06:10:21.796Z,95.38
2018-08-11T06:12:53.060Z,96.29
2018-08-11T06:15:22.519Z,95.29
2018-08-11T06:17:52.034Z,95.15
2018-08-11T06:20:21.472Z,94.20
2018-08-11T06:22:54.195Z,94.02
2018-08-11T06:25:24.962Z,95.69
2018-08-11T06:28:01.456Z,95.83
2018-08-11T06:30:31.014Z,96.37
2018-08-11T06:33:00.697Z,95.59
2018-08-11T06:35:30.605Z,96.59
2018-08-11T06:38:00.050Z,95.35
2018-08-11T06:40:29.740Z,95.89
2018-08-11T06:42:59.166Z,96.28
2018-08-11T06:45:29.567Z,95.89
2018-08-11T06:47:59.138Z,95.26
2018-08-11T06:50:29.802Z,95.19
2018-08-11T06:53:00.519Z,96.03
2018-08-11T06:55:30.046Z,95.18
2018-08-11T06:58:00.532Z,94.47
2018-08-11T07:00:30.202Z,93.98
2018-08-11T07:02:59.646Z,94.09
2018-08-11T07:05:29.167Z,94.62
2018-08-11T07:08:00.274Z,92.15
2018-08-11T07:10:29.976Z,92.80
2018-08-11T07:13:00.737Z,91.72
2018-08-11T07:15:31.211Z,92.79
2018-08-11T07:18:00.430Z,90.73
2018-08-11T07:20:31.453Z,89.29
2018-08-11T07:23:00.776Z,88.64
2018-08-11T07:25:31.059Z,92.37
2018-08-11T07:28:02.360Z,91.47
2018-08-11T07:30:31.775Z,90.42
2018-08-11T07:33:01.938Z,90.19
2018-08-11T07:35:32.109Z,88.69
2018-08-11T07:38:02.951Z,87.13
2018-08-11T07:40:32.468Z,88.26
2018-08-11T07:43:04.029Z,90.61
2018-08-11T07:45:33.722Z,91.19
2018-08-11T07:48:03.812Z,88.81
2018-08-11T07:50:33.094Z,88.21
2018-08-11T07:53:02.436Z,87.48
2018-08-11T07:55:31.696Z,86.36
2018-08-11T07:58:02.093Z,84.55
2018-08-11T08:00:33.142Z,85.38
2018-08-11T08:03:04.775Z,84.64
2018-08-11T08:05:36.521Z,81.59
2018-08-11T08:08:06.031Z,81.76
2018-08-11T08:10:35.522Z,82.69
2018-08-11T08:13:05.012Z,83.42
2018-08-11T08:15:34.586Z,82.69
2018-08-11T08:18:04.850Z,81.81
2018-08-11T08:20:34.399Z,77.88
2018-08-11T08:23:04.408Z,78.05
2018-08-11T08:25:35.230Z,78.53
2018-08-11T08:28:05.130Z,78.00
2018-08-11T08:30:36.295Z,78.17
2018-08-11T08:33:06.497Z,77.37
2018-08-11T08:35:37.214Z,78.38
2018-08-11T08:38:07.910Z,78.04
2018-08-11T08:40:37.943Z,77.77
2018-08-11T08:43:08.023Z,77.12
2018-08-11T08:45:38.712Z,74.53
2018-08-11T08:48:10.498Z,76.69
2018-08-11T08:50:39.890Z,78.89
2018-08-11T08:53:09.679Z,77.98
2018-08-11T08:55:40.217Z,80.70
2018-08-11T08:58:09.574Z,82.47
2018-08-11T09:00:39.671Z,81.82
2018-08-11T09:03:09.124Z,81.36
2018-08-11T09:05:38.444Z,80.15
2018-08-11T09:08:09.639Z,80.79
2018-08-11T09:10:40.350Z,80.23
2018-08-11T09:13:11.105Z,77.98
2018-08-11T09:15:41.736Z,80.54
2018-08-11T09:18:11.500Z,79.24
2018-08-11T09:20:41.832Z,76.63
2018-08-11T09:23:11.167Z,76.57
2018-08-11T09:25:40.853Z,72.85
2018-08-11T09:28:11.242Z,72.11
2018-08-11T09:30:41.214Z,72.39
2018-08-11T09:33:10.772Z,75.77
2018-08-11T09:35:41.332Z,70.44
2018-08-11T09:38:12.244Z,70.13
2018-08-11T09:40:42.069Z,72.16
2018-08-11T09:43:12.066Z,72.95
2018-08-11T09:45:41.965Z,74.50
2018-08-11T09:48:12.558Z,73.91
2018-08-11T09:50:42.424Z,73.87
2018-08-11T09:53:11.789Z,73.17
2018-08-11T09:55:41.471Z,72.56
2018-08-11T09:58:10.943Z,70.89
2018-08-11T10:00:45.654Z,70.59
2018-08-11T10:03:16.675Z,70.00
2018-08-11T10:05:46.368Z,66.03
2018-08-11T10:08:16.509Z,70.66
2018-08-11T10:10:46.398Z,66.33
2018-08-11T10:13:15.901Z,67.83
2018-08-11T10:15:46.033Z,66.52
2018-08-11T10:18:17.000Z,64.32
2018-08-11T10:20:46.593Z,64.85
2018-08-11T10:23:16.219Z,62.69
2018-08-11T10:25:46.076Z,63.24
2018-08-11T10:28:16.674Z,62.09
2018-08-11T10:30:46.651Z,60.96
2018-08-11T10:33:17.226Z,60.00
2018-08-11T10:35:47.302Z,58.99
2018-08-11T10:38:17.719Z,57.34
2018-08-11T10:40:47.318Z,57.84
2018-08-11T10:43:16.819Z,58.91
2018-08-11T10:45:46.525Z,56.16
2018-08-11T10:48:16.155Z,61.13
2018-08-11T10:50:45.821Z,59.14
2018-08-11T10:53:15.857Z,61.27
2018-08-11T10:55:45.671Z,53.10
2018-08-11T10:58:15.830Z,54.50
2018-08-11T11:00:47.687Z,58.32
2018-08-11T11:03:18.560Z,56.15
2018-08-11T11:05:49.478Z,49.19
2018-08-11T11:08:19.100Z,54.52
2018-08-11T11:10:48.512Z,55.71
2018-08-11T11:13:17.997Z,57.35
2018-08-11T11:15:47.444Z,58.55
2018-08-11T11:18:17.456Z,57.94
2018-08-11T11:20:47.299Z,58.26
2018-08-11T11:23:16.660Z,59.72
2018-08-11T11:25:47.919Z,60.32
2018-08-11T11:28:17.656Z,61.04
2018-08-11T11:30:46.967Z,59.21
2018-08-11T11:33:16.466Z,60.02
2018-08-11T11:35:46.790Z,59.61
2018-08-11T11:38:16.330Z,55.83
2018-08-11T11:40:45.847Z,52.37
2018-08-11T11:43:15.120Z,52.64
2018-08-11T11:45:44.579Z,53.12
2018-08-11T11:48:13.965Z,55.55
2018-08-11T11:50:43.700Z,57.54
2018-08-11T11:53:13.041Z,59.08
2018-08-11T11:55:43.190Z,57.43
2018-08-11T11:58:12.908Z,55.54
2018-08-11T12:00:42.496Z,53.37
2018-08-11T12:03:11.873Z,54.82
2018-08-11T12:05:42.283Z,49.00
2018-08-11T12:08:11.639Z,51.91
2018-08-11T12:10:42.429Z,53.65
2018-08-11T12:13:11.850Z,50.12
2018-08-11T12:15:41.265Z,52.64
2018-08-11T12:18:10.708Z,52.88
2018-08-11T12:20:40.209Z,51.78
2018-08-11T12:23:10.829Z,54.09
2018-08-11T12:25:40.274Z,50.72
2018-08-11T12:28:09.690Z,53.31
2018-08-11T12:30:39.463Z,52.06
2018-08-11T12:33:08.766Z,51.98
2018-08-11T12:35:39.199Z,53.19
2018-08-11T12:38:08.611Z,51.84
2018-08-11T12:40:38.027Z,51.42
2018-08-11T12:43:07.368Z,50.43
2018-08-11T12:45:36.816Z,51.20
2018-08-11T12:48:06.372Z,50.85
2018-08-11T12:50:35.840Z,49.21
2018-08-11T12:53:05.170Z,49.38
2018-08-11T12:55:34.473Z,49.70
2018-08-11T12:58:03.951Z,49.88
2018-08-11T13:00:33.397Z,48.54
2018-08-11T13:03:02.689Z,48.54
2018-08-11T13:05:35.218Z,48.03
2018-08-11T13:08:04.557Z,49.24
2018-08-11T13:10:34.280Z,48.52
2018-08-11T13:13:03.982Z,47.98
2018-08-11T13:15:33.579Z,47.16
2018-08-11T13:18:04.519Z,47.52
2018-08-11T13:20:33.959Z,46.26
2018-08-11T13:23:03.400Z,46.60
2018-08-11T13:25:34.090Z,48.45
2018-08-11T13:28:03.517Z,49.10
2018-08-11T13:30:33.162Z,47.87
2018-08-11T13:33:02.804Z,47.72
2018-08-11T13:35:32.424Z,47.42
2018-08-11T13:38:02.054Z,45.39
2018-08-11T13:40:32.146Z,47.39
2018-08-11T13:43:01.498Z,44.80
2018-08-11T13:45:30.680Z,45.63
2018-08-11T13:48:00.048Z,48.13
2018-08-11T13:50:29.593Z,44.25
2018-08-11T13:52:59.231Z,48.24
2018-08-11T13:55:28.630Z,45.62
2018-08-11T13:57:58.517Z,46.37
2018-08-11T14:00:27.892Z,47.41
2018-08-11T14:02:57.397Z,47.36
2018-08-11T14:05:26.678Z,45.06
2018-08-11T14:07:56.147Z,47.64
2018-08-11T14:10:26.142Z,47.55
2018-08-11T14:12:55.571Z,47.92
2018-08-11T14:15:25.790Z,48.61
2018-08-11T14:17:56.000Z,50.87
2018-08-11T14:20:25.393Z,50.35
2018-08-11T14:22:54.715Z,50.41
2018-08-11T14:25:24.139Z,48.86
2018-08-11T14:27:53.565Z,47.83
2018-08-11T14:30:22.933Z,50.92
2018-08-11T14:32:52.365Z,51.23
2018-08-11T14:35:22.302Z,48.49
2018-08-11T14:37:51.886Z,50.97
2018-08-11T14:40:21.472Z,52.04
2018-08-11T14:42:54.397Z,50.41
2018-08-11T14:45:25.002Z,49.66
2018-08-11T14:47:56.039Z,50.70
2018-08-11T14:50:25.454Z,51.15
2018-08-11T14:52:54.914Z,52.75
2018-08-11T14:55:24.211Z,53.40
2018-08-11T14:57:53.765Z,54.06
2018-08-11T15:00:24.231Z,53.67
2018-08-11T15:02:53.729Z,54.72
2018-08-11T15:05:23.292Z,55.40
2018-08-11T15:07:52.704Z,54.51
2018-08-11T15:10:22.366Z,54.57
2018-08-11T15:12:53.019Z,50.91
2018-08-11T15:15:23.014Z,50.85
2018-08-11T15:17:52.335Z,55.07
2018-08-11T15:20:21.882Z,48.94
2018-08-11T15:22:51.324Z,49.70
2018-08-11T15:25:22.478Z,50.22
2018-08-11T15:27:51.958Z,48.56
2018-08-11T15:30:22.391Z,47.19
2018-08-11T15:32:52.935Z,46.69
2018-08-11T15:35:22.246Z,46.98
2018-08-11T15:37:51.989Z,46.65
2018-08-11T15:40:22.560Z,48.58
2018-08-11T15:42:52.351Z,48.86
2018-08-11T15:45:21.815Z,46.57
2018-08-11T15:47:51.206Z,47.44
2018-08-11T15:50:20.599Z,46.62
2018-08-11T15:52:51.073Z,48.61
2018-08-11T15:55:21.087Z,46.75
2018-08-11T15:57:51.093Z,48.25
2018-08-11T16:00:20.623Z,46.12
2018-08-11T16:02:50.006Z,48.27
2018-08-11T16:05:19.528Z,48.39
2018-08-11T16:07:49.008Z,48.06
2018-08-11T16:10:18.366Z,46.79
2018-08-11T16:12:48.715Z,48.82
2018-08-11T16:15:17.971Z,49.51
2018-08-11T16:17:48.916Z,48.78
2018-08-11T16:20:18.995Z,48.90
2018-08-11T16:22:50.030Z,51.16
2018-08-11T16:25:19.845Z,53.06
2018-08-11T16:27:49.344Z,51.25
2018-08-11T16:30:19.105Z,52.37
2018-08-11T16:32:48.914Z,54.03
2018-08-11T16:35:18.317Z,53.17
2018-08-11T16:37:48.605Z,52.61
2018-08-11T16:40:17.980Z,54.16
2018-08-11T16:42:47.445Z,51.37
2018-08-11T16:45:17.252Z,48.33
2018-08-11T16:47:46.665Z,53.51
2018-08-11T16:50:16.128Z,54.22
2018-08-11T16:52:46.592Z,56.48
2018-08-11T16:55:16.088Z,57.61
2018-08-11T16:57:45.722Z,57.11
2018-08-11T17:00:16.086Z,58.90
2018-08-11T17:02:46.087Z,59.91
2018-08-11T17:05:15.583Z,59.83
2018-08-11T17:07:44.755Z,60.74
2018-08-11T17:10:13.934Z,61.34
2018-08-11T17:12:43.582Z,61.69
2018-08-11T17:15:13.308Z,62.04
2018-08-11T17:17:42.642Z,61.83
2018-08-11T17:20:11.939Z,62.72
2018-08-11T17:22:42.162Z,62.68
2018-08-11T17:25:11.648Z,63.06
2018-08-11T17:27:41.042Z,63.27
2018-08-11T17:30:24.295Z,63.25
2018-08-11T17:32:53.837Z,62.77
2018-08-11T17:35:24.588Z,63.70
2018-08-11T17:37:55.157Z,66.35
2018-08-11T17:40:24.836Z,66.85
2018-08-11T17:42:54.529Z,66.61
2018-08-11T17:45:24.035Z,67.37
2018-08-11T17:47:54.319Z,66.78
2018-08-11T17:50:24.928Z,66.65
2018-08-11T17:52:54.296Z,67.08
2018-08-11T17:55:23.792Z,67.54
2018-08-11T17:57:53.418Z,67.88
2018-08-11T18:00:22.959Z,68.60
2018-08-11T18:02:52.538Z,68.88
2018-08-11T18:08:12.404Z,69.55
2018-08-11T18:10:42.053Z,70.18
2018-08-11T18:13:13.922Z,70.50
2018-08-11T18:15:44.194Z,71.48
2018-08-11T18:18:13.860Z,72.20
2018-08-11T18:20:42.970Z,72.20
2018-08-11T18:23:13.611Z,72.71
2018-08-11T18:25:43.335Z,71.96
2018-08-11T18:28:12.742Z,73.09
2018-08-11T18:30:42.622Z,73.55
2018-08-11T18:33:11.936Z,74.12
2018-08-11T18:35:41.413Z,74.33
2018-08-11T18:38:11.132Z,74.04
2018-08-11T18:40:41.606Z,74.86
2018-08-11T18:43:15.454Z,73.91
2018-08-11T18:45:44.987Z,73.08
2018-08-11T18:48:14.925Z,74.05
2018-08-11T18:50:45.110Z,74.57
2018-08-11T18:53:14.855Z,73.88
2018-08-11T18:55:47.652Z,73.00
2018-08-11T18:58:18.433Z,73.25
2018-08-11T19:00:49.976Z,73.40
2018-08-11T19:03:19.444Z,73.97
2018-08-11T19:05:49.172Z,74.58
2018-08-11T19:08:18.857Z,74.85
2018-08-11T19:10:48.666Z,75.50
2018-08-11T19:13:19.028Z,75.59
2018-08-11T19:15:50.082Z,76.89
2018-08-11T19:18:20.410Z,76.46
2018-08-11T19:20:51.324Z,76.13
2018-08-11T19:23:21.039Z,76.95
2018-08-11T19:25:50.910Z,76.17
2018-08-11T19:28:20.774Z,76.78
2018-08-11T19:30:52.178Z,77.33
2018-08-11T19:33:22.657Z,78.77
2018-08-11T19:35:52.111Z,77.72
2018-08-11T19:38:21.647Z,78.63
2018-08-11T19:40:52.622Z,79.51
2018-08-11T19:43:22.190Z,79.09
2018-08-11T19:45:51.757Z,79.56
2018-08-11T19:48:21.502Z,80.82
2018-08-11T19:50:51.010Z,80.13
2018-08-11T19:53:20.877Z,80.36
2018-08-11T19:55:53.014Z,79.25
2018-08-11T19:58:22.368Z,79.22
2018-08-11T20:00:52.176Z,80.12
2018-08-11T20:03:21.510Z,80.84
2018-08-11T20:05:51.286Z,81.09
2018-08-11T20:08:21.080Z,81.73
2018-08-11T20:10:50.986Z,81.61
2018-08-11T20:13:20.378Z,80.71
2018-08-11T20:15:49.877Z,82.37
2018-08-11T20:18:20.164Z,83.07
2018-08-11T20:20:50.412Z,83.55
2018-08-11T20:23:20.555Z,82.30
2018-08-11T20:25:50.617Z,82.23
2018-08-11T20:28:20.242Z,84.39
2018-08-11T20:30:50.628Z,83.32
2018-08-11T20:33:20.195Z,82.94
2018-08-11T20:35:49.779Z,83.83
2018-08-11T20:38:19.810Z,83.93
2018-08-11T20:40:49.391Z,82.42
2018-08-11T20:43:18.818Z,82.93
2018-08-11T20:45:49.794Z,84.24
2018-08-11T20:48:19.375Z,84.30
2018-08-11T20:50:49.372Z,84.64
2018-08-11T20:53:18.875Z,84.30
2018-08-11T20:55:48.980Z,83.23
2018-08-11T20:58:18.697Z,83.65
2018-08-11T21:00:48.121Z,84.09
2018-08-11T21:03:17.489Z,84.30
2018-08-11T21:05:46.988Z,84.45
2018-08-11T21:08:17.931Z,84.01
2018-08-11T21:10:48.139Z,84.80
2018-08-11T21:13:18.910Z,84.56
2018-08-11T21:15:48.904Z,86.24
2018-08-11T21:18:18.765Z,85.22
2018-08-11T21:20:48.265Z,85.49
2018-08-11T21:23:18.339Z,85.13
2018-08-11T21:25:47.758Z,84.25
2018-08-11T21:28:17.360Z,84.18
2018-08-11T21:30:46.980Z,84.13
2018-08-11T21:33:16.708Z,85.34
2018-08-11T21:35:46.207Z,85.23
2018-08-11T21:38:15.736Z,86.31
2018-08-11T21:40:45.248Z,85.86
2018-08-11T21:43:14.707Z,85.90
2018-08-11T21:45:44.038Z,86.05
2018-08-11T21:48:14.073Z,86.08
2018-08-11T21:50:44.236Z,86.69
2018-08-11T21:53:17.702Z,86.62
2018-08-11T21:55:47.152Z,86.70
2018-08-11T21:58:16.894Z,86.96
2018-08-11T22:00:51.421Z,86.28
2018-08-11T22:03:20.845Z,86.86
2018-08-11T22:05:51.124Z,87.51
2018-08-11T22:08:20.603Z,87.38
2018-08-11T22:10:51.261Z,86.52
2018-08-11T22:13:20.789Z,87.60
2018-08-11T22:15:50.429Z,87.99
2018-08-11T22:18:19.797Z,87.99
2018-08-11T22:20:49.255Z,87.82
2018-08-11T22:23:18.706Z,88.48
2018-08-11T22:25:48.174Z,88.20
2018-08-11T22:28:17.473Z,88.38
2018-08-11T22:30:47.655Z,87.89
2018-08-11T22:33:17.034Z,87.93
2018-08-11T22:35:46.552Z,88.55
2018-08-11T22:38:16.103Z,87.44
2018-08-11T22:40:45.591Z,87.68
2018-08-11T22:43:15.912Z,88.15
2018-08-11T22:45:45.280Z,88.78
2018-08-11T22:48:15.628Z,88.38
2018-08-11T22:50:44.887Z,89.38
2018-08-11T22:53:15.186Z,89.02
2018-08-11T22:55:44.548Z,89.06
2018-08-11T22:58:14.454Z,89.91
2018-08-11T23:00:43.941Z,90.13
2018-08-11T23:03:14.366Z,90.14
2018-08-11T23:05:43.477Z,89.72
2018-08-11T23:08:12.926Z,89.83
2018-08-11T23:10:43.553Z,90.13
2018-08-11T23:13:12.893Z,89.97
2018-08-11T23:15:42.448Z,89.98
2018-08-11T23:18:12.145Z,91.08
2018-08-11T23:20:44.068Z,90.03
2018-08-11T23:23:13.616Z,91.04
2018-08-11T23:25:42.949Z,90.98
2018-08-11T23:28:13.843Z,91.52
2018-08-11T23:30:43.423Z,91.85
2018-08-11T23:33:13.224Z,90.43
2018-08-11T23:35:43.799Z,91.47
2018-08-11T23:38:13.179Z,91.48
2018-08-11T23:40:42.525Z,92.42
2018-08-11T23:43:11.992Z,91.15
2018-08-11T23:45:41.451Z,91.70
2018-08-11T23:48:11.603Z,91.88
2018-08-11T23:50:41.276Z,91.32
2018-08-11T23:53:10.976Z,90.52
2018-08-11T23:55:41.528Z,91.10
2018-08-11T23:58:11.566Z,91.16
